Flight Track Log - Related Links

Times and Time Zones

All times are in EDT time to prevent confusion due to time zone crossing. See the AWE1286 flight status page for this flight to view local times or setup timezone preferences in your user account.

Time Position Orientation Groundspeed Altitude Reporting Facility
EDT Latitude Longitude Course Direction KTS MPH feet Rate Location/Type
Sun 09:49:16 AM 39.8465 -75.2895 90° East 178 205 1,100  Level FlightAware
Sun 09:49:32 AM 39.8361 -75.3011 221° Southwest 187 215 1,900 2,438 Climbing FlightAware
Sun 09:49:48 AM 39.8246 -75.3139 221° Southwest 209 241 2,400 2,250 Climbing FlightAware
Sun 09:50:04 AM 39.8129 -75.3276 222° Southwest 226 260 3,100 2,813 Climbing FlightAware
Sun 09:50:20 AM 39.8002 -75.3432 223° Southwest 238 274 3,900 2,710 Climbing FlightAware
Sun 09:50:35 AM 39.7875 -75.3587 223° Southwest 257 296 4,500 2,609 Climbing FlightAware
Sun 09:50:43 AM 39.7806 -75.3667 222° Southwest 262 302 4,900 3,429 Climbing FlightAware
Sun 09:50:49 AM 39.7751 -75.3728 220° Southwest 262 302 5,300 3,333 Climbing FlightAware
Sun 09:50:52 AM 39.7719 -75.3756 214° Southwest 263 303 5,400 3,429 Climbing FlightAware
Sun 09:50:56 AM 39.7678 -75.3787 210° Southwest 263 303 5,700 3,750 Climbing FlightAware
Sun 09:51:00 AM 39.7630 -75.3813 203° Southwest 263 303 5,900 3,600 Climbing FlightAware
Sun 09:51:06 AM 39.7570 -75.3837 197° South 262 302 6,300 4,000 Climbing FlightAware
Sun 09:51:09 AM 39.7526 -75.3848 191° South 261 300 6,500 3,750 Climbing FlightAware
Sun 09:51:14 AM 39.7475 -75.3853 184° South 261 300 6,800 3,600 Climbing FlightAware
Sun 09:51:19 AM 39.7411 -75.3851 179° South 262 302 7,100 4,000 Climbing FlightAware
Sun 09:51:26 AM 39.7322 -75.3838 174° South 264 304 7,600 3,130 Climbing FlightAware
Sun 09:51:42 AM 39.7130 -75.3795 170° South 275 316 8,300 3,188 Climbing FlightAware
Sun 09:51:58 AM 39.6921 -75.3752 171° South 279 321 9,300 2,809 Climbing FlightAware
Sun 09:52:29 AM 39.6524 -75.3659 170° South 307 353 10,500 1,967 Climbing FlightAware
Sun 09:52:59 AM 39.6073 -75.3549 169° South 351 404 11,300 2,400 Climbing FlightAware
Sun 09:53:29 AM 39.5571 -75.3420 169° South 370 426 12,900 3,412 Climbing FlightAware
Sun 09:53:50 AM 39.5216 -75.3329 169° South 378 435 14,200 3,563 Climbing FlightAware
Sun 09:54:01 AM 39.5023 -75.3298 173° South 382 440 14,800 2,609 Climbing FlightAware
Sun 09:54:13 AM 39.4809 -75.3295 179° South 389 448 15,200 1,116 Climbing FlightAware
Sun 09:54:44 AM 39.4226 -75.3379 186° South 410 472 15,600 533 Climbing FlightAware
Sun 09:54:58 AM 39.3977 -75.3422 188° South 413 475 15,600  Level FlightAware
Sun 09:55:07 AM 39.3793 -75.3422 180° South 413 475 15,600 231 Level FlightAware
Sun 09:55:24 AM 39.3491 -75.3321 165° South 411 473 15,700 462 Climbing FlightAware
Sun 09:55:33 AM 39.3331 -75.3211 152° Southeast 409 471 15,800 750 Climbing FlightAware
Sun 09:55:48 AM 39.3123 -75.2983 140° Southeast 412 474 16,000 900 Climbing FlightAware
Sun 09:55:53 AM 39.3067 -75.2891 128° Southeast 413 475 16,100 811 Climbing FlightAware
Sun 09:56:25 AM 39.2741 -75.2210 122° Southeast 424 488 16,500 1,920 Climbing FlightAware
Sun 09:57:08 AM 39.2306 -75.1244 120° Southeast 435 501 18,500 2,838 Climbing FlightAware
Sun 09:57:39 AM 39.1987 -75.0542 120° Southeast 446 513 20,000 2,762 Climbing FlightAware
Sun 09:58:11 AM 39.1649 -74.9809 121° Southeast 458 527 21,400 2,571 Climbing FlightAware
Sun 09:58:42 AM 39.1313 -74.9083 121° Southeast 471 542 22,700 2,419 Climbing FlightAware
Sun 09:59:13 AM 39.0957 -74.8320 121° Southeast 483 556 23,900 2,000 Climbing FlightAware
Sun 09:59:48 AM 39.0542 -74.7444 121° Southeast 497 572 24,900 1,808 Climbing FlightAware
Sun 10:00:26 AM 39.0054 -74.6475 123° Southeast 517 595 26,100 2,027 Climbing FlightAware
Sun 10:01:02 AM 38.9620 -74.5610 123° Southeast 520 598 27,400 2,308 Climbing FlightAware
Sun 10:01:05 AM 38.9550 -74.5465 122° Southeast 525 604 27,600 3,176 Climbing FlightAware
Sun 10:01:36 AM 38.9144 -74.4653 123° Southeast 520 598 29,200 2,647 Climbing FlightAware
Sun 10:02:13 AM 38.8660 -74.3685 123° Southeast 524 603 30,600 2,176 Climbing FlightAware
Sun 10:03:07 AM 38.7970 -74.2330 123° Southeast 526 605 32,500 2,056 Climbing FlightAware
Sun 10:04:01 AM 38.7225 -74.0867 123° Southeast 532 612 34,300 2,071 Climbing FlightAware
Sun 10:04:31 AM 38.6813 -74.0062 123° Southeast 530 610 35,400 2,000 Climbing FlightAware
Sun 10:05:04 AM 38.6372 -73.9198 123° Southeast 530 610 36,400 1,477 Climbing FlightAware
Sun 10:05:36 AM 38.5945 -73.8364 123° Southeast 534 615 37,000 333 Climbing FlightAware
Sun 10:06:52 AM 38.4990 -73.6510 123° Southeast 525 604 37,000  Level FlightAware
Sun 10:07:32 AM 38.4470 -73.5520 124° Southeast 521 600 37,000  Level FlightAware
Sun 10:07:48 AM 38.4156 -73.4936 124° Southeast 520 598 37,000  Level FlightAware
Sun 10:08:20 AM 38.3738 -73.4124 123° Southeast 517 595 37,000  Level FlightAware
Sun 10:10:22 AM 38.2270 -73.1170 122° Southeast 513 590 37,000  Level FlightAware
Sun 10:10:52 AM 38.1870 -73.0390 123° Southeast 518 596 37,000  Level FlightAware
Sun 10:11:14 AM 38.1507 -72.9673 123° Southeast 524 603 37,000  Level FlightAware
Sun 10:11:51 AM 38.1018 -72.8730 123° Southeast 526 605 37,000  Level FlightAware
Sun 10:12:23 AM 38.0580 -72.7904 124° Southeast 528 608 37,000  Level FlightAware
Sun 10:13:02 AM 38.0100 -72.7010 124° Southeast 523 602 37,000  Level FlightAware
Sun 10:13:14 AM 37.9882 -72.6600 124° Southeast 528 608 37,000  Level FlightAware
Sun 10:13:47 AM 37.9530 -72.5920 123° Southeast 523 602 37,000  Level FlightAware
Sun 10:14:32 AM 37.8950 -72.4820 124° Southeast 526 605 37,000  Level FlightAware
Sun 10:15:07 AM 37.8530 -72.3990 123° Southeast 526 605 37,000  Level FlightAware
Sun 10:15:46 AM 37.7857 -72.2676 123° Southeast 526 605 37,000  Level FlightAware
Sun 10:16:19 AM 37.7425 -72.1826 123° Southeast 526 605 37,000  Level FlightAware
Sun 10:16:40 AM 37.7667 -72.1517 123° Southeast 533 613 37,000  Level New Center
Sun 10:17:40 AM 37.6825 -72.0186 129° Southeast 526 605 37,000  Level New Center
Sun 10:18:41 AM 37.5858 -71.8911 134° Southeast 504 580 37,000  Level New Center
Sun 10:19:41 AM 37.4700 -71.7744 141° Southeast 511 588 37,000  Level New Center
Sun 10:20:41 AM 37.3456 -71.7072 157° South 513 590 37,000  Level New Center
Sun 10:21:01 AM 37.4000 -71.7000 176° South 486 559 37,000  Level New Oceanic
Sun 10:21:40 AM 37.2017 -71.6897 176° South 497 572 37,000  Level New Center
Sun 10:23:00 AM 37.0316 -71.6645 173° South  Level FlightAware
Sun 10:30:00 AM 36.1356 -71.5676 175° South  Level FlightAware
Sun 10:31:00 AM 36.0076 -71.5546 175° South  Level FlightAware
Sun 10:32:00 AM 35.8795 -71.5416 175° South  Level FlightAware
Sun 10:33:00 AM 35.7515 -71.5286 175° South  Level FlightAware
Sun 10:34:00 AM 35.6236 -71.5141 168° South  Level FlightAware
Sun 10:35:00 AM 35.4980 -71.4813 168° South  Level FlightAware
Sun 10:35:13 AM 35.6333 -71.5333 168° South 493 567 37,000  Level New Oceanic
Sun 10:36:00 AM 35.3757 -71.4494 168° South  Level FlightAware
Sun 10:37:00 AM 35.2534 -71.4177 168° South  Level FlightAware
Sun 10:38:00 AM 35.1310 -71.3860 168° South  Level FlightAware
Sun 10:39:00 AM 35.0087 -71.3544 168° South  Level FlightAware
Sun 10:40:00 AM 34.8863 -71.3230 168° South  Level FlightAware
Sun 10:41:00 AM 34.4002 -71.2169 168° South 493 567 37,000  Level FlightAware
Sun 10:42:00 AM 34.2670 -71.1838 168° South 493 567 37,000  Level FlightAware
Sun 10:43:00 AM 34.1338 -71.1508 168° South 493 567 37,000  Level FlightAware
Sun 10:44:00 AM 34.0006 -71.1179 168° South 493 567 37,000  Level FlightAware
Sun 10:45:00 AM 33.8673 -71.0852 168° South 493 567 37,000  Level FlightAware
Sun 10:46:00 AM 33.7341 -71.0525 168° South 493 567 37,000  Level FlightAware
Sun 10:47:00 AM 33.6008 -71.0199 169° South 493 567 37,000  Level FlightAware
Sun 10:48:00 AM 33.4675 -70.9874 169° South 493 567 37,000  Level FlightAware
Sun 10:49:00 AM 33.3342 -70.9551 169° South 493 567 37,000  Level FlightAware
Sun 10:50:00 AM 33.2009 -70.9228 169° South 493 567 37,000  Level FlightAware
Sun 10:51:00 AM 33.0676 -70.8906 169° South 493 567 37,000  Level FlightAware
Sun 10:52:00 AM 32.9343 -70.8586 169° South 493 567 37,000  Level FlightAware
Sun 10:53:00 AM 32.8010 -70.8266 169° South 493 567 37,000  Level FlightAware
Sun 10:54:00 AM 32.6677 -70.7947 169° South 493 567 37,000  Level FlightAware
Sun 10:55:00 AM 32.5344 -70.7629 169° South 493 567 37,000  Level FlightAware
Sun 10:56:00 AM 32.4010 -70.7312 169° South 493 567 37,000  Level FlightAware
Sun 10:57:00 AM 32.2677 -70.6996 169° South 493 567 37,000  Level FlightAware
Sun 10:58:00 AM 32.1343 -70.6681 169° South 493 567 37,000  Level FlightAware
Sun 10:59:00 AM 32.0009 -70.6367 169° South 493 567 37,000  Level FlightAware
Sun 11:00:00 AM 31.8676 -70.6054 169° South 493 567 37,000  Level FlightAware
Sun 11:01:00 AM 31.7342 -70.5742 169° South 493 567 37,000  Level FlightAware
Sun 11:02:00 AM 31.6008 -70.5430 169° South 493 567 37,000  Level FlightAware
Sun 11:03:00 AM 31.4674 -70.5120 169° South 493 567 37,000  Level FlightAware
Sun 11:04:00 AM 31.3340 -70.4810 169° South 493 567 37,000  Level FlightAware
Sun 11:05:00 AM 31.2006 -70.4501 169° South 493 567 37,000  Level FlightAware
Sun 11:06:00 AM 31.0672 -70.4193 169° South 493 567 37,000  Level FlightAware
Sun 11:07:00 AM 30.9338 -70.3886 169° South 493 567 37,000  Level FlightAware
Sun 11:08:00 AM 30.8003 -70.3580 169° South 493 567 37,000  Level FlightAware
Sun 11:09:00 AM 30.6669 -70.3275 169° South 493 567 37,000  Level FlightAware
Sun 11:10:00 AM 30.5334 -70.2970 169° South 493 567 37,000  Level FlightAware
Sun 11:11:00 AM 30.4119 -70.2627 166° South  Level FlightAware
Sun 11:12:00 AM 30.2904 -70.2286 166° South  Level FlightAware
Sun 11:13:00 AM 30.3003 -70.2348 169° South  Level FlightAware
Sun 11:13:00 AM 30.4000 -70.2667 169° South 478 550 37,000  Level New Oceanic
Sun 11:14:00 AM 30.1776 -70.2068 169° South  Level FlightAware
Sun 11:15:00 AM 30.0549 -70.1789 169° South  Level FlightAware
Sun 11:16:00 AM 29.9322 -70.1510 169° South  Level FlightAware
Sun 11:17:00 AM 29.8095 -70.1232 169° South  Level FlightAware
Sun 11:18:00 AM 29.6868 -70.0955 169° South  Level FlightAware
Sun 11:19:00 AM 29.3471 -70.0296 169° South 478 550 37,000  Level FlightAware
Sun 11:20:00 AM 29.2155 -70.0004 169° South 478 550 37,000  Level FlightAware
Sun 11:21:00 AM 29.0839 -69.9712 169° South 478 550 37,000  Level FlightAware
Sun 11:22:00 AM 28.9522 -69.9420 169° South 478 550 37,000  Level FlightAware
Sun 11:23:00 AM 28.8206 -69.9130 169° South 478 550 37,000  Level FlightAware
Sun 11:24:00 AM 28.6889 -69.8840 169° South 478 550 37,000  Level FlightAware
Sun 11:25:00 AM 28.5572 -69.8551 169° South 478 550 37,000  Level FlightAware
Sun 11:26:00 AM 28.4255 -69.8262 169° South 478 550 37,000  Level FlightAware
Sun 11:27:00 AM 28.2939 -69.7975 169° South 478 550 37,000  Level FlightAware
Sun 11:28:00 AM 28.1622 -69.7688 169° South 478 550 37,000  Level FlightAware
Sun 11:29:00 AM 28.0305 -69.7402 169° South 478 550 37,000  Level FlightAware
Sun 11:30:00 AM 27.8988 -69.7116 169° South 478 550 37,000  Level FlightAware
Sun 11:31:00 AM 27.7671 -69.6831 169° South 478 550 37,000  Level FlightAware
Sun 11:32:00 AM 27.6354 -69.6547 169° South 478 550 37,000  Level FlightAware
Sun 11:33:00 AM 27.5037 -69.6263 169° South 478 550 37,000  Level FlightAware
Sun 11:34:00 AM 27.3719 -69.5981 169° South 478 550 37,000  Level FlightAware
Sun 11:35:00 AM 27.2402 -69.5698 169° South 478 550 37,000  Level FlightAware
Sun 11:36:00 AM 27.1085 -69.5417 169° South 478 550 37,000  Level FlightAware
Sun 11:37:00 AM 26.9767 -69.5136 169° South 478 550 37,000  Level FlightAware
Sun 11:38:00 AM 26.8450 -69.4856 169° South 478 550 37,000  Level FlightAware
Sun 11:39:00 AM 26.7132 -69.4576 169° South 478 550 37,000  Level FlightAware
Sun 11:40:00 AM 26.5815 -69.4298 169° South 478 550 37,000  Level FlightAware
Sun 11:41:00 AM 26.4497 -69.4019 169° South 478 550 37,000  Level FlightAware
Sun 11:42:00 AM 26.3179 -69.3742 169° South 478 550 37,000  Level FlightAware
Sun 11:43:00 AM 26.1862 -69.3465 169° South 478 550 37,000  Level FlightAware
Sun 11:44:00 AM 26.0544 -69.3189 169° South 478 550 37,000  Level FlightAware
Sun 11:45:00 AM 25.9226 -69.2913 169° South 478 550 37,000  Level FlightAware
Sun 11:46:00 AM 25.7908 -69.2638 169° South 478 550 37,000  Level FlightAware
Sun 11:47:00 AM 25.6590 -69.2363 169° South 478 550 37,000  Level FlightAware
Sun 11:47:46 AM 26.7167 -69.4500 170° South 449 517 37,000  Level New Oceanic
Sun 11:48:00 AM 25.5272 -69.2089 169° South 478 550 37,000  Level FlightAware
Sun 11:49:00 AM 25.3954 -69.1816 169° South 478 550 37,000  Level FlightAware
Sun 11:50:00 AM 25.2636 -69.1544 169° South 478 550 37,000  Level FlightAware
Sun 11:51:00 AM 25.1318 -69.1272 169° South 478 550 37,000  Level FlightAware
Sun 11:52:00 AM 25.0000 -69.1000 167° South 478 550 37,000  Level FlightAware
Sun 11:53:00 AM 24.8820 -69.0705 167° South 478 550 37,000  Level FlightAware
Sun 11:53:39 AM 24.9753 -69.0717 167° South 465 535 37,000  Level Miami Center
Sun 11:54:00 AM 24.8713 -69.0679 167° South 449 517 37,000  Level FlightAware
Sun 11:54:39 AM 24.8422 -69.0389 167° South 476 548 37,000  Level Miami Center
Sun 11:55:00 AM 24.7425 -69.0358 167° South 449 517 37,000  Level FlightAware
Sun 11:55:39 AM 24.7111 -69.0039 166° South 481 554 37,000  Level Miami Center
Sun 11:56:00 AM 24.6137 -69.0038 167° South 449 517 37,000  Level FlightAware
Sun 11:56:39 AM 24.5864 -68.9753 168° South 469 540 37,000  Level Miami Center
Sun 11:57:00 AM 24.4849 -68.9718 167° South 449 517 37,000  Level FlightAware
Sun 11:57:39 AM 24.4619 -68.9492 169° South 469 540 37,000  Level Miami Center
Sun 11:58:00 AM 24.3562 -68.9399 167° South 449 517 37,000  Level FlightAware
Sun 11:58:39 AM 24.3350 -68.9139 166° South 469 540 37,000  Level Miami Center
Sun 11:59:39 AM 24.2103 -68.8833 167° South 469 540 37,000  Level Miami Center
Sun 12:00:39 PM 24.0856 -68.8525 167° South 474 545 37,000  Level Miami Center
Sun 12:01:39 PM 23.9614 -68.8264 169° South 468 539 37,000  Level Miami Center
Sun 12:02:39 PM 23.8322 -68.7917 166° South 468 539 37,000  Level Miami Center
Sun 12:03:39 PM 23.7078 -68.7633 168° South 462 532 37,000  Level Miami Center
Sun 12:04:39 PM 23.5786 -68.7286 166° South 468 539 37,000  Level Miami Center
Sun 12:05:39 PM 23.4606 -68.7047 169° South 457 526 37,000  Level Miami Center
Sun 12:06:39 PM 23.3336 -68.6722 167° South 457 526 37,000  Level Miami Center
Sun 12:07:39 PM 23.2092 -68.6439 168° South 452 520 37,000  Level Miami Center
Sun 12:08:39 PM 23.0825 -68.6139 168° South 462 532 37,000 -50 Level Miami Center
Sun 12:09:39 PM 22.9536 -68.5814 167° South 462 532 36,900 -300 Descending Miami Center
Sun 12:10:39 PM 22.8269 -68.5514 168° South 469 540 36,400 -450 Descending Miami Center
Sun 12:11:39 PM 22.7022 -68.5233 168° South 469 540 36,000 -450 Descending Miami Center
Sun 12:12:39 PM 22.5714 -68.4914 167° South 467 537 35,500 -500 Descending Miami Center
Sun 12:13:39 PM 22.4386 -68.4619 168° South 475 547 35,000 -250 Descending Miami Center
Sun 12:14:39 PM 22.3186 -68.4406 171° South 470 541 35,000  Level Miami Center
Sun 12:15:39 PM 22.1878 -68.4108 168° South 470 541 35,000  Level Miami Center
Sun 12:16:39 PM 22.0633 -68.3853 169° South 470 541 35,000  Level Miami Center
Sun 12:17:39 PM 21.9283 -68.3536 168° South 475 547 35,000  Level Miami Center
Sun 12:18:39 PM 21.7997 -68.3239 168° South 475 547 35,000  Level Miami Center
Sun 12:19:39 PM 21.6750 -68.2942 168° South 475 547 35,000  Level Miami Center
Sun 12:20:39 PM 21.5464 -68.2644 168° South 475 547 35,000  Level Miami Center
Sun 12:21:39 PM 21.4281 -68.2342 167° South 470 541 35,000  Level Miami Center
Sun 12:22:39 PM 21.2972 -68.1672 155° Southeast 480 552 35,000  Level Miami Center
Sun 12:23:39 PM 21.2122 -68.0617 131° Southeast 474 545 35,000  Level Miami Center
Sun 12:24:39 PM 21.1083 -67.9597 138° Southeast 486 559 35,000  Level Miami Center
Sun 12:25:39 PM 21.0147 -67.8528 133° Southeast 494 568 35,000  Level Miami Center
Sun 12:31:37 PM 20.4370 -67.2470 133° Southeast 502 578 35,000  Level FlightAware
Sun 12:32:32 PM 20.3520 -67.1540 134° Southeast 502 578 35,000 -442 Level FlightAware
Sun 12:33:12 PM 20.2790 -67.0790 136° Southeast 514 592 34,300 -1,036 Descending FlightAware
Sun 12:34:22 PM 20.1600 -66.9530 135° Southeast 510 587 33,100 -783 Descending FlightAware
Sun 12:35:07 PM 20.0890 -66.8780 135° Southeast 508 585 32,800 -943 Descending FlightAware
Sun 12:35:32 PM 20.0420 -66.8290 136° Southeast 499 574 32,000 -923 Descending FlightAware
Sun 12:36:12 PM 19.9840 -66.7680 135° Southeast 499 574 31,800 -565 Descending FlightAware
Sun 12:36:57 PM 19.9100 -66.6900 135° Southeast 497 572 31,200 -1,271 Descending FlightAware
Sun 12:37:37 PM 19.8380 -66.6150 136° Southeast 498 573 30,000 -1,553 Descending FlightAware
Sun 12:38:22 PM 19.7650 -66.5380 135° Southeast 496 571 29,000 -1,553 Descending FlightAware
Sun 12:39:02 PM 19.6990 -66.4690 135° Southeast 501 577 27,800 -1,835 Descending FlightAware
Sun 12:39:47 PM 19.6220 -66.3890 136° Southeast 503 579 26,400 -1,765 Descending FlightAware
Sun 12:40:27 PM 19.5550 -66.3200 136° Southeast 495 570 25,300 -1,725 Descending FlightAware
Sun 12:41:07 PM 19.4930 -66.2550 135° Southeast 482 555 24,100 -1,765 Descending FlightAware
Sun 12:41:52 PM 19.4200 -66.1800 136° Southeast 470 541 22,800 -1,694 Descending FlightAware
Sun 12:42:32 PM 19.3600 -66.1180 136° Southeast 463 533 21,700 -1,650 Descending FlightAware
Sun 12:43:12 PM 19.2970 -66.0530 136° Southeast 458 527 20,600 -1,553 Descending FlightAware
Sun 12:43:57 PM 19.2300 -65.9840 136° Southeast 453 521 19,500 -1,553 Descending FlightAware
Sun 12:44:37 PM 19.1720 -65.9220 135° Southeast 441 507 18,400 -1,575 Descending FlightAware
Sun 12:45:17 PM 19.1140 -65.8620 136° Southeast 430 495 17,400 -1,553 Descending FlightAware
Sun 12:46:02 PM 19.0490 -65.7960 136° Southeast 424 488 16,200 -1,553 Descending FlightAware
Sun 12:46:42 PM 18.9930 -65.7380 136° Southeast 415 478 15,200 -1,482 Descending FlightAware
Sun 12:47:27 PM 18.9320 -65.6750 136° Southeast 406 467 14,100 -1,694 Descending FlightAware
Sun 12:48:07 PM 18.8800 -65.6220 136° Southeast 394 453 12,800 -2,259 Descending FlightAware
Sun 12:48:52 PM 18.8200 -65.5610 136° Southeast 381 438 10,900 -1,835 Descending FlightAware
Sun 12:49:32 PM 18.7700 -65.5110 137° Southeast 347 399 10,200 -675 Descending FlightAware
Sun 12:50:12 PM 18.7220 -65.4720 142° Southeast 310 357 10,000 -514 Descending FlightAware
Sun 12:50:42 PM 18.6910 -65.4520 149° Southeast 297 342 9,600 -900 Descending FlightAware
Sun 12:50:52 PM 18.6800 -65.4450 149° Southeast 295 339 9,400 -343 Descending FlightAware
Sun 12:51:17 PM 18.6510 -65.4270 150° Southeast 295 339 9,400  Level FlightAware
Sun 12:51:37 PM 18.6310 -65.4140 148° Southeast 295 339 9,400  Level FlightAware
Sun 12:52:07 PM 18.6010 -65.3950 149° Southeast 295 339 9,400  Level FlightAware
Sun 12:52:27 PM 18.5820 -65.3830 149° Southeast 295 339 9,400  Level FlightAware
Sun 12:52:47 PM 18.5620 -65.3700 148° Southeast 295 339 9,400 -3,281 Level FlightAware
Sun 12:53:31 PM 18.5167 -65.3000 148° Southeast 270 311 5,900 -2,712 Descending San Center
Sun 12:54:31 PM 18.4667 -65.2667 148° Southeast 260 299 4,700 -1,500 Descending San Center
Sun 12:55:31 PM 18.4000 -65.2333 155° Southeast 260 299 2,900 -1,240 Descending San Center
Sun 12:56:32 PM 18.3333 -65.1833 145° Southeast 250 288 2,200 -347 Descending San Center
Sun 12:57:32 PM 18.3167 -65.1167 105° East 210 242 2,200  Level San Center

Login

Don't have an account? Register now (free) for customized features, flight alerts, and more!